^^
Meteo Knjazevac Station Historical Data
Daily Summary for January 24, 2021 Units:  Both    English   Metric
Daily Weekly Monthly Yearly Custom
  High: Low: Average:
Temperature: 74.1 °F /  23.4 °C 37.9 °F /  3.3 °C 55.8 °F /  13.2 °C
Dew Point: 51.7 °F /  10.9 °C 35.6 °F /  2 °C 45.1 °F /  7.3 °C
Humidity: 94% 43% 71%
Wind Speed: 13mph /  20.9km/h - 3.2mph /  5.1km/h
Wind Gust: 20mph /  32.2km/h - -
Wind- - SW
Pressure: 30.21 in /  1022.9 hPa 30.04 in /  1017.2 hPa -
Precipitation: 0.00 in /  0 mm    
Historical Graphs
 
 
Tabular Data for January 24, 2021
Time Temperature Dew Point Pressure Wind Wind Speed Wind Gust Humidity Rainfall Rate (Hourly) solar Conditions
00:10 40.6 °F /  4.8 °C 37.6 °F /  3.1 °C 30.21in /  1022.9hPa West 2mph /  3.2km/h 3mph /  4.8km/h 89% 0.00in /  0mm 0 W/m2
00:20 40.3 °F /  4.6 °C 37 °F /  2.8 °C 30.21in /  1022.9hPa West 1mph /  1.6km/h 3mph /  4.8km/h 88% 0.00in /  0mm 0 W/m2
00:30 39.9 °F /  4.4 °C 36.9 °F /  2.7 °C 30.21in /  1022.9hPa WNW 2mph /  3.2km/h 3mph /  4.8km/h 89% 0.00in /  0mm 0 W/m2
00:40 39.7 °F /  4.3 °C 36.7 °F /  2.6 °C 30.21in /  1022.9hPa WNW 2mph /  3.2km/h 3mph /  4.8km/h 89% 0.00in /  0mm 0 W/m2
00:50 39.4 °F /  4.1 °C 36.7 °F /  2.6 °C 30.21in /  1022.9hPa West 2mph /  3.2km/h 4mph /  6.4km/h 90% 0.00in /  0mm 0 W/m2
01:00 39.2 °F /  4 °C 36.5 °F /  2.5 °C 30.20in /  1022.6hPa NW 1mph /  1.6km/h 4mph /  6.4km/h 90% 0.00in /  0mm 0 W/m2
01:10 39 °F /  3.9 °C 36.3 °F /  2.4 °C 30.20in /  1022.6hPa NW 1mph /  1.6km/h 3mph /  4.8km/h 90% 0.00in /  0mm 0 W/m2
01:20 39.2 °F /  4 °C 36.8 °F /  2.7 °C 30.19in /  1022.2hPa WNW 2mph /  3.2km/h 4mph /  6.4km/h 91% 0.00in /  0mm 0 W/m2
01:30 39.5 °F /  4.2 °C 37.1 °F /  2.8 °C 30.19in /  1022.2hPa NW 1mph /  1.6km/h 3mph /  4.8km/h 91% 0.00in /  0mm 0 W/m2
01:40 39.2 °F /  4 °C 36.5 °F /  2.5 °C 30.19in /  1022.2hPa NW 2mph /  3.2km/h 3mph /  4.8km/h 90% 0.00in /  0mm 0 W/m2
01:50 39 °F /  3.9 °C 36.3 °F /  2.4 °C 30.19in /  1022.2hPa NNW 1mph /  1.6km/h 2mph /  3.2km/h 90% 0.00in /  0mm 0 W/m2
02:00 38.8 °F /  3.8 °C 36.2 °F /  2.3 °C 30.19in /  1022.2hPa Calm   3mph /  4.8km/h 90% 0.00in /  0mm 0 W/m2
02:10 38.5 °F /  3.6 °C 35.8 °F /  2.1 °C 30.19in /  1022.2hPa NW 1mph /  1.6km/h 4mph /  6.4km/h 90% 0.00in /  0mm 0 W/m2
02:20 38.3 °F /  3.5 °C 35.6 °F /  2 °C 30.19in /  1022.2hPa WNW 1mph /  1.6km/h 2mph /  3.2km/h 90% 0.00in /  0mm 0 W/m2
02:30 38.1 °F /  3.4 °C 35.7 °F /  2.1 °C 30.18in /  1021.9hPa North 2mph /  3.2km/h 3mph /  4.8km/h 91% 0.00in /  0mm 0 W/m2
02:40 38.1 °F /  3.4 °C 35.7 °F /  2.1 °C 30.19in /  1022.2hPa Calm   3mph /  4.8km/h 91% 0.00in /  0mm 0 W/m2
02:50 38.1 °F /  3.4 °C 35.7 °F /  2.1 °C 30.18in /  1021.9hPa North 1mph /  1.6km/h 2mph /  3.2km/h 91% 0.00in /  0mm 0 W/m2
03:00 37.9 °F /  3.3 °C 36.1 °F /  2.3 °C 30.18in /  1021.9hPa North 2mph /  3.2km/h 3mph /  4.8km/h 93% 0.00in /  0mm 0 W/m2
03:10 38.1 °F /  3.4 °C 36.3 °F /  2.4 °C 30.18in /  1021.9hPa NW 1mph /  1.6km/h 3mph /  4.8km/h 93% 0.00in /  0mm 0 W/m2
03:20 38.3 °F /  3.5 °C 36.7 °F /  2.6 °C 30.18in /  1021.9hPa NNE 1mph /  1.6km/h 3mph /  4.8km/h 94% 0.00in /  0mm 0 W/m2
03:30 38.7 °F /  3.7 °C 36.8 °F /  2.7 °C 30.17in /  1021.6hPa ESE 1mph /  1.6km/h 5mph /  8km/h 93% 0.00in /  0mm 0 W/m2
03:40 38.3 °F /  3.5 °C 36.5 °F /  2.5 °C 30.17in /  1021.6hPa NNE 1mph /  1.6km/h 4mph /  6.4km/h 93% 0.00in /  0mm 0 W/m2
03:50 38.7 °F /  3.7 °C 37.1 °F /  2.8 °C 30.17in /  1021.6hPa North 1mph /  1.6km/h 2mph /  3.2km/h 94% 0.00in /  0mm 0 W/m2
04:00 39 °F /  3.9 °C 37.4 °F /  3 °C 30.17in /  1021.6hPa Calm   3mph /  4.8km/h 94% 0.00in /  0mm 0 W/m2
04:10 39.2 °F /  4 °C 37.6 °F /  3.1 °C 30.17in /  1021.6hPa WNW 1mph /  1.6km/h 3mph /  4.8km/h 94% 0.00in /  0mm 0 W/m2
04:20 39.2 °F /  4 °C 37.6 °F /  3.1 °C 30.16in /  1021.2hPa WNW 1mph /  1.6km/h 3mph /  4.8km/h 94% 0.00in /  0mm 0 W/m2
04:30 39.6 °F /  4.2 °C 38 °F /  3.3 °C 30.16in /  1021.2hPa NW 1mph /  1.6km/h 3mph /  4.8km/h 94% 0.00in /  0mm 0 W/m2
04:40 39.9 °F /  4.4 °C 38.3 °F /  3.5 °C 30.16in /  1021.2hPa Calm   2mph /  3.2km/h 94% 0.00in /  0mm 0 W/m2
04:50 39.9 °F /  4.4 °C 38.1 °F /  3.4 °C 30.16in /  1021.2hPa Calm   5mph /  8km/h 93% 0.00in /  0mm 0 W/m2
05:00 40 °F /  4.4 °C 38.4 °F /  3.6 °C 30.16in /  1021.2hPa ESE 1mph /  1.6km/h 2mph /  3.2km/h 94% 0.00in /  0mm 0 W/m2
05:10 40.3 °F /  4.6 °C 38.7 °F /  3.7 °C 30.15in /  1020.9hPa Calm   2mph /  3.2km/h 94% 0.00in /  0mm 0 W/m2
05:20 40.1 °F /  4.5 °C 37.7 °F /  3.2 °C 30.15in /  1020.9hPa Calm   2mph /  3.2km/h 91% 0.00in /  0mm 0 W/m2
05:30 39.9 °F /  4.4 °C 38.1 °F /  3.4 °C 30.15in /  1020.9hPa NNW 2mph /  3.2km/h 5mph /  8km/h 93% 0.00in /  0mm 0 W/m2
05:40 39.7 °F /  4.3 °C 37.9 °F /  3.3 °C 30.15in /  1020.9hPa NNW 1mph /  1.6km/h 3mph /  4.8km/h 93% 0.00in /  0mm 0 W/m2
05:50 40.1 °F /  4.5 °C 38.5 °F /  3.6 °C 30.15in /  1020.9hPa North 1mph /  1.6km/h 2mph /  3.2km/h 94% 0.00in /  0mm 0 W/m2
06:00 40.6 °F /  4.8 °C 39 °F /  3.9 °C 30.15in /  1020.9hPa NE 1mph /  1.6km/h 4mph /  6.4km/h 94% 0.00in /  0mm 0 W/m2
06:10 40.4 °F /  4.7 °C 38.6 °F /  3.7 °C 30.14in /  1020.5hPa NE 1mph /  1.6km/h 4mph /  6.4km/h 93% 0.00in /  0mm 0 W/m2
06:20 40.3 °F /  4.6 °C 38.4 °F /  3.6 °C 30.14in /  1020.5hPa ENE 1mph /  1.6km/h 2mph /  3.2km/h 93% 0.00in /  0mm 2 W/m2
06:30 40.5 °F /  4.7 °C 38.6 °F /  3.7 °C 30.14in /  1020.5hPa Calm   2mph /  3.2km/h 93% 0.00in /  0mm 5 W/m2
06:40 40.3 °F /  4.6 °C 38.4 °F /  3.6 °C 30.14in /  1020.5hPa NW 1mph /  1.6km/h 2mph /  3.2km/h 93% 0.00in /  0mm 13 W/m2
06:50 40.8 °F /  4.9 °C 39.2 °F /  4 °C 30.14in /  1020.5hPa NW 1mph /  1.6km/h 3mph /  4.8km/h 94% 0.00in /  0mm 24 W/m2
07:00 41.2 °F /  5.1 °C 39.6 °F /  4.2 °C 30.14in /  1020.5hPa Calm   2mph /  3.2km/h 94% 0.00in /  0mm 37 W/m2
07:10 41.6 °F /  5.3 °C 40 °F /  4.4 °C 30.13in /  1020.2hPa West 1mph /  1.6km/h 3mph /  4.8km/h 94% 0.00in /  0mm 53 W/m2
07:20 42.1 °F /  5.6 °C 40.5 °F /  4.7 °C 30.14in /  1020.5hPa Calm   3mph /  4.8km/h 94% 0.00in /  0mm 62 W/m2
07:30 42.8 °F /  6 °C 41.2 °F /  5.1 °C 30.14in /  1020.5hPa ESE 2mph /  3.2km/h 3mph /  4.8km/h 94% 0.00in /  0mm 74 W/m2
07:40 43.3 °F /  6.3 °C 41.5 °F /  5.3 °C 30.14in /  1020.5hPa Calm   3mph /  4.8km/h 93% 0.00in /  0mm 91 W/m2
07:50 43.7 °F /  6.5 °C 41.8 °F /  5.4 °C 30.14in /  1020.5hPa Calm   2mph /  3.2km/h 93% 0.00in /  0mm 96 W/m2
08:00 44.2 °F /  6.8 °C 42.3 °F /  5.7 °C 30.14in /  1020.5hPa Calm   2mph /  3.2km/h 93% 0.00in /  0mm 131 W/m2
08:10 45 °F /  7.2 °C 42.5 °F /  5.8 °C 30.14in /  1020.5hPa Calm   3mph /  4.8km/h 91% 0.00in /  0mm 192 W/m2
08:20 45.9 °F /  7.7 °C 43.1 °F /  6.2 °C 30.14in /  1020.5hPa SW 1mph /  1.6km/h 5mph /  8km/h 90% 0.00in /  0mm 176 W/m2
08:30 46.9 °F /  8.3 °C 44.2 °F /  6.8 °C 30.14in /  1020.5hPa Calm   4mph /  6.4km/h 90% 0.00in /  0mm 216 W/m2
08:40 48.1 °F /  8.9 °C 45.3 °F /  7.4 °C 30.13in /  1020.2hPa Calm   2mph /  3.2km/h 90% 0.00in /  0mm 238 W/m2
08:50 49.5 °F /  9.7 °C 45.5 °F /  7.5 °C 30.14in /  1020.5hPa ESE 1mph /  1.6km/h 3mph /  4.8km/h 86% 0.00in /  0mm 260 W/m2
09:00 50.9 °F /  10.5 °C 46.2 °F /  7.9 °C 30.14in /  1020.5hPa SSE 1mph /  1.6km/h 5mph /  8km/h 84% 0.00in /  0mm 278 W/m2
09:10 52 °F /  11.1 °C 46.7 °F /  8.2 °C 30.14in /  1020.5hPa South 1mph /  1.6km/h 3mph /  4.8km/h 82% 0.00in /  0mm 289 W/m2
09:20 53.3 °F /  11.8 °C 46.9 °F /  8.3 °C 30.14in /  1020.5hPa South 3mph /  4.8km/h 8mph /  12.9km/h 79% 0.00in /  0mm 332 W/m2
09:50 56.2 °F /  13.4 °C 47.1 °F /  8.4 °C 30.14in /  1020.5hPa SW 4mph /  6.4km/h 11mph /  17.7km/h 71.8% 0.00in /  0mm 414 W/m2
10:00 58 °F /  14.4 °C 47.5 °F /  8.6 °C 30.14in /  1020.5hPa SW 5mph /  8km/h 9mph /  14.5km/h 68% 0.00in /  0mm 413 W/m2
10:10 58.9 °F /  14.9 °C 47.5 °F /  8.6 °C 30.14in /  1020.5hPa SW 7mph /  11.3km/h 12mph /  19.3km/h 66% 0.00in /  0mm 429 W/m2
10:20 59.5 °F /  15.3 °C 47.3 °F /  8.5 °C 30.14in /  1020.5hPa SW 6mph /  9.7km/h 12mph /  19.3km/h 64% 0.00in /  0mm 318 W/m2
10:30 60.1 °F /  15.6 °C 47.5 °F /  8.6 °C 30.14in /  1020.5hPa SW 8mph /  12.9km/h 14mph /  22.5km/h 63% 0.00in /  0mm 318 W/m2
10:40 60.8 °F /  16 °C 46.8 °F /  8.2 °C 30.13in /  1020.2hPa SW 9mph /  14.5km/h 15mph /  24.1km/h 60% 0.00in /  0mm 436 W/m2
10:50 61.3 °F /  16.3 °C 46.4 °F /  8 °C 30.13in /  1020.2hPa SW 10mph /  16.1km/h 17mph /  27.4km/h 58% 0.00in /  0mm 488 W/m2
11:00 62.1 °F /  16.7 °C 47.2 °F /  8.4 °C 30.13in /  1020.2hPa SW 10mph /  16.1km/h 17mph /  27.4km/h 58% 0.00in /  0mm 593 W/m2
11:10 63 °F /  17.2 °C 47.5 °F /  8.6 °C 30.13in /  1020.2hPa SW 10mph /  16.1km/h 15mph /  24.1km/h 57% 0.00in /  0mm 613 W/m2
11:20 63.7 °F /  17.6 °C 48.2 °F /  9 °C 30.13in /  1020.2hPa SW 9mph /  14.5km/h 15mph /  24.1km/h 57% 0.00in /  0mm 542 W/m2
11:30 64.1 °F /  17.8 °C 47.6 °F /  8.7 °C 30.13in /  1020.2hPa SW 9mph /  14.5km/h 15mph /  24.1km/h 55% 0.00in /  0mm 579 W/m2
11:40 64.8 °F /  18.2 °C 48.3 °F /  9.1 °C 30.13in /  1020.2hPa SW 9mph /  14.5km/h 14mph /  22.5km/h 55% 0.00in /  0mm 704 W/m2
11:50 66.1 °F /  18.9 °C 48.4 °F /  9.1 °C 30.12in /  1019.9hPa SW 9mph /  14.5km/h 15mph /  24.1km/h 53% 0.00in /  0mm 709 W/m2
12:00 67.1 °F /  19.5 °C 47.8 °F /  8.8 °C 30.12in /  1019.9hPa SSW 10mph /  16.1km/h 17mph /  27.4km/h 50% 0.00in /  0mm 713 W/m2
12:10 67.9 °F /  19.9 °C 48.6 °F /  9.2 °C 30.12in /  1019.9hPa SSW 7mph /  11.3km/h 17mph /  27.4km/h 50% 0.00in /  0mm 716 W/m2
12:20 68.7 °F /  20.4 °C 48.8 °F /  9.3 °C 30.11in /  1019.5hPa SSW 6mph /  9.7km/h 14mph /  22.5km/h 49% 0.00in /  0mm 717 W/m2
12:30 69.4 °F /  20.8 °C 48.9 °F /  9.4 °C 30.11in /  1019.5hPa SW 9mph /  14.5km/h 17mph /  27.4km/h 48% 0.00in /  0mm 716 W/m2
12:40 70 °F /  21.1 °C 49.4 °F /  9.7 °C 30.10in /  1019.2hPa SW 9mph /  14.5km/h 14mph /  22.5km/h 48% 0.00in /  0mm 714 W/m2
12:50 70.5 °F /  21.4 °C 49.3 °F /  9.6 °C 30.10in /  1019.2hPa SW 8mph /  12.9km/h 15mph /  24.1km/h 47% 0.00in /  0mm 710 W/m2
13:00 70.9 °F /  21.6 °C 49.6 °F /  9.8 °C 30.09in /  1018.8hPa SW 8mph /  12.9km/h 17mph /  27.4km/h 47% 0.00in /  0mm 704 W/m2
13:10 71.1 °F /  21.7 °C 48.7 °F /  9.3 °C 30.09in /  1018.8hPa SW 8mph /  12.9km/h 16mph /  25.7km/h 45% 0.00in /  0mm 697 W/m2
13:20 71.5 °F /  21.9 °C 49 °F /  9.4 °C 30.09in /  1018.8hPa SW 9mph /  14.5km/h 16mph /  25.7km/h 45% 0.00in /  0mm 688 W/m2
13:30 72.1 °F /  22.3 °C 49.6 °F /  9.8 °C 30.08in /  1018.5hPa SW 7mph /  11.3km/h 14mph /  22.5km/h 45% 0.00in /  0mm 678 W/m2
13:40 72.3 °F /  22.4 °C 49.2 °F /  9.6 °C 30.08in /  1018.5hPa SSW 8mph /  12.9km/h 19mph /  30.6km/h 44% 0.00in /  0mm 666 W/m2
13:50 72.7 °F /  22.6 °C 49.5 °F /  9.7 °C 30.07in /  1018.2hPa SW 6mph /  9.7km/h 19mph /  30.6km/h 44% 0.00in /  0mm 653 W/m2
14:00 73.3 °F /  22.9 °C 50.1 °F /  10.1 °C 30.06in /  1017.8hPa SSW 8mph /  12.9km/h 15mph /  24.1km/h 44% 0.00in /  0mm 638 W/m2
14:10 73.4 °F /  23 °C 49.5 °F /  9.7 °C 30.06in /  1017.8hPa SSW 8mph /  12.9km/h 17mph /  27.4km/h 43% 0.00in /  0mm 622 W/m2
14:20 73.6 °F /  23.1 °C 50.3 °F /  10.2 °C 30.06in /  1017.8hPa SW 12mph /  19.3km/h 16mph /  25.7km/h 44% 0.00in /  0mm 604 W/m2
14:30 73.9 °F /  23.3 °C 50.6 °F /  10.3 °C 30.06in /  1017.8hPa WSW 8mph /  12.9km/h 16mph /  25.7km/h 44% 0.00in /  0mm 585 W/m2
14:40 74.1 °F /  23.4 °C 50.2 °F /  10.1 °C 30.06in /  1017.8hPa SW 13mph /  20.9km/h 17mph /  27.4km/h 43% 0.00in /  0mm 565 W/m2
14:50 73.9 °F /  23.3 °C 50 °F /  10 °C 30.05in /  1017.5hPa SW 10mph /  16.1km/h 17mph /  27.4km/h 43% 0.00in /  0mm 495 W/m2
15:00 73.9 °F /  23.3 °C 50.6 °F /  10.3 °C 30.05in /  1017.5hPa SW 9mph /  14.5km/h 15mph /  24.1km/h 44% 0.00in /  0mm 516 W/m2
15:10 73.2 °F /  22.9 °C 50.6 °F /  10.3 °C 30.05in /  1017.5hPa SW 10mph /  16.1km/h 20mph /  32.2km/h 45% 0.00in /  0mm 463 W/m2
15:20 73 °F /  22.8 °C 50.4 °F /  10.2 °C 30.05in /  1017.5hPa SW 10mph /  16.1km/h 20mph /  32.2km/h 45% 0.00in /  0mm 472 W/m2
15:30 73.2 °F /  22.9 °C 50.6 °F /  10.3 °C 30.05in /  1017.5hPa SW 9mph /  14.5km/h 17mph /  27.4km/h 45% 0.00in /  0mm 446 W/m2
15:40 73.5 °F /  23.1 °C 50.8 °F /  10.4 °C 30.05in /  1017.5hPa SW 7mph /  11.3km/h 18mph /  29km/h 45% 0.00in /  0mm 419 W/m2
15:50 73.6 °F /  23.1 °C 50.3 °F /  10.2 °C 30.05in /  1017.5hPa SW 9mph /  14.5km/h 18mph /  29km/h 44% 0.00in /  0mm 392 W/m2
16:00 73.6 °F /  23.1 °C 50.9 °F /  10.5 °C 30.05in /  1017.5hPa SW 8mph /  12.9km/h 15mph /  24.1km/h 45% 0.00in /  0mm 364 W/m2
16:10 73.9 °F /  23.3 °C 51.3 °F /  10.7 °C 30.04in /  1017.2hPa SW 8mph /  12.9km/h 14mph /  22.5km/h 45% 0.00in /  0mm 335 W/m2
16:20 74.1 °F /  23.4 °C 50.8 °F /  10.4 °C 30.05in /  1017.5hPa SW 7mph /  11.3km/h 13mph /  20.9km/h 44% 0.00in /  0mm 307 W/m2
16:30 74.1 °F /  23.4 °C 51.4 °F /  10.8 °C 30.05in /  1017.5hPa SW 6mph /  9.7km/h 12mph /  19.3km/h 45% 0.00in /  0mm 277 W/m2
16:40 74.1 °F /  23.4 °C 51.4 °F /  10.8 °C 30.04in /  1017.2hPa SW 6mph /  9.7km/h 10mph /  16.1km/h 45% 0.00in /  0mm 248 W/m2
16:50 73.7 °F /  23.2 °C 50.4 °F /  10.2 °C 30.05in /  1017.5hPa SW 6mph /  9.7km/h 10mph /  16.1km/h 44% 0.00in /  0mm 87 W/m2
17:00 73.1 °F /  22.8 °C 50.5 °F /  10.3 °C 30.04in /  1017.2hPa SW 5mph /  8km/h 8mph /  12.9km/h 45% 0.00in /  0mm 94 W/m2
17:10 72.6 °F /  22.6 °C 50.6 °F /  10.3 °C 30.04in /  1017.2hPa SW 6mph /  9.7km/h 11mph /  17.7km/h 46% 0.00in /  0mm 96 W/m2
17:20 72.3 °F /  22.4 °C 51 °F /  10.6 °C 30.05in /  1017.5hPa SW 3mph /  4.8km/h 12mph /  19.3km/h 47% 0.00in /  0mm 108 W/m2
17:30 72.1 °F /  22.3 °C 51.4 °F /  10.8 °C 30.05in /  1017.5hPa SSW 2mph /  3.2km/h 6mph /  9.7km/h 48% 0.00in /  0mm 106 W/m2
17:40 72.1 °F /  22.3 °C 51.4 °F /  10.8 °C 30.05in /  1017.5hPa South 2mph /  3.2km/h 6mph /  9.7km/h 48% 0.00in /  0mm 80 W/m2
17:50 71.9 °F /  22.2 °C 51.1 °F /  10.6 °C 30.05in /  1017.5hPa South 1mph /  1.6km/h 5mph /  8km/h 48% 0.00in /  0mm 50 W/m2
18:00 71.5 °F /  21.9 °C 50.8 °F /  10.4 °C 30.05in /  1017.5hPa SSE 2mph /  3.2km/h 5mph /  8km/h 48% 0.00in /  0mm 34 W/m2
18:10 71.1 °F /  21.7 °C 50.9 °F /  10.5 °C 30.05in /  1017.5hPa SSE 2mph /  3.2km/h 6mph /  9.7km/h 49% 0.00in /  0mm 16 W/m2
18:20 70.5 °F /  21.4 °C 51.5 °F /  10.8 °C 30.06in /  1017.8hPa SSE 1mph /  1.6km/h 6mph /  9.7km/h 51% 0.00in /  0mm 8 W/m2
18:30 69.6 °F /  20.9 °C 51.7 °F /  10.9 °C 30.06in /  1017.8hPa SSW 1mph /  1.6km/h 3mph /  4.8km/h 53% 0.00in /  0mm 0 W/m2
18:40 68.7 °F /  20.4 °C 51.4 °F /  10.8 °C 30.06in /  1017.8hPa SW 1mph /  1.6km/h 4mph /  6.4km/h 54% 0.00in /  0mm 0 W/m2
18:50 68 °F /  20 °C 50.7 °F /  10.4 °C 30.06in /  1017.8hPa SSW 2mph /  3.2km/h 4mph /  6.4km/h 54% 0.00in /  0mm 0 W/m2
19:00 67.3 °F /  19.6 °C 50.6 °F /  10.3 °C 30.06in /  1017.8hPa SW 1mph /  1.6km/h 3mph /  4.8km/h 55% 0.00in /  0mm 0 W/m2
19:10 66.5 °F /  19.2 °C 50.8 °F /  10.4 °C 30.06in /  1017.8hPa WNW 2mph /  3.2km/h 5mph /  8km/h 57% 0.00in /  0mm 0 W/m2
19:20 65.9 °F /  18.8 °C 50.7 °F /  10.4 °C 30.06in /  1017.8hPa West 1mph /  1.6km/h 5mph /  8km/h 58% 0.00in /  0mm 0 W/m2
19:30 65.2 °F /  18.4 °C 50.1 °F /  10.1 °C 30.07in /  1018.2hPa SW 1mph /  1.6km/h 2mph /  3.2km/h 58% 0.00in /  0mm 0 W/m2
19:40 64.3 °F /  17.9 °C 50.1 °F /  10.1 °C 30.07in /  1018.2hPa ESE 2mph /  3.2km/h 5mph /  8km/h 60% 0.00in /  0mm 0 W/m2
19:50 63.4 °F /  17.4 °C 50.2 °F /  10.1 °C 30.08in /  1018.5hPa Calm   5mph /  8km/h 62% 0.00in /  0mm 0 W/m2
20:00 62.6 °F /  17 °C 49.8 °F /  9.9 °C 30.08in /  1018.5hPa NNE 1mph /  1.6km/h 2mph /  3.2km/h 63% 0.00in /  0mm 0 W/m2
20:10 61.9 °F /  16.6 °C 49.6 °F /  9.8 °C 30.08in /  1018.5hPa NNE 2mph /  3.2km/h 3mph /  4.8km/h 64% 0.00in /  0mm 0 W/m2
20:20 61.2 °F /  16.2 °C 49.7 °F /  9.8 °C 30.08in /  1018.5hPa NE 1mph /  1.6km/h 5mph /  8km/h 66% 0.00in /  0mm 0 W/m2
20:30 61 °F /  16.1 °C 49.9 °F /  9.9 °C 30.09in /  1018.8hPa NE 1mph /  1.6km/h 6mph /  9.7km/h 67% 0.00in /  0mm 0 W/m2
20:40 60.4 °F /  15.8 °C 49.8 °F /  9.9 °C 30.09in /  1018.8hPa NE 2mph /  3.2km/h 6mph /  9.7km/h 68% 0.00in /  0mm 0 W/m2
20:50 59.8 °F /  15.4 °C 49.6 °F /  9.8 °C 30.09in /  1018.8hPa Calm   3mph /  4.8km/h 69% 0.00in /  0mm 0 W/m2
21:00 59.2 °F /  15.1 °C 49 °F /  9.4 °C 30.10in /  1019.2hPa Calm   2mph /  3.2km/h 69% 0.00in /  0mm 0 W/m2
21:10 58.5 °F /  14.7 °C 48.7 °F /  9.3 °C 30.10in /  1019.2hPa Calm   1mph /  1.6km/h 70% 0.00in /  0mm 0 W/m2
21:20 57.6 °F /  14.2 °C 48.6 °F /  9.2 °C 30.10in /  1019.2hPa Calm   2mph /  3.2km/h 72% 0.00in /  0mm 0 W/m2
21:30 56.8 °F /  13.8 °C 48.3 °F /  9.1 °C 30.10in /  1019.2hPa Calm   2mph /  3.2km/h 73% 0.00in /  0mm 0 W/m2
21:40 56.3 °F /  13.5 °C 48.1 °F /  8.9 °C 30.11in /  1019.5hPa North 1mph /  1.6km/h 3mph /  4.8km/h 74% 0.00in /  0mm 0 W/m2
21:50 55.6 °F /  13.1 °C 47.4 °F /  8.6 °C 30.11in /  1019.5hPa Calm   2mph /  3.2km/h 74% 0.00in /  0mm 0 W/m2
22:00 54.9 °F /  12.7 °C 47.2 °F /  8.4 °C 30.11in /  1019.5hPa NW 1mph /  1.6km/h 3mph /  4.8km/h 75% 0.00in /  0mm 0 W/m2
22:10 54.6 °F /  12.6 °C 46.8 °F /  8.2 °C 30.11in /  1019.5hPa Calm   2mph /  3.2km/h 75% 0.00in /  0mm 0 W/m2
22:20 54.1 °F /  12.3 °C 47.1 °F /  8.4 °C 30.11in /  1019.5hPa Calm   1mph /  1.6km/h 77% 0.00in /  0mm 0 W/m2
22:30 53.8 °F /  12.1 °C 47.1 °F /  8.4 °C 30.12in /  1019.9hPa Calm   2mph /  3.2km/h 78% 0.00in /  0mm 0 W/m2
22:40 53.1 °F /  11.7 °C 46.4 °F /  8 °C 30.12in /  1019.9hPa Calm   2mph /  3.2km/h 78% 0.00in /  0mm 0 W/m2
22:50 52.7 °F /  11.5 °C 46.4 °F /  8 °C 30.12in /  1019.9hPa NW 2mph /  3.2km/h 3mph /  4.8km/h 79% 0.00in /  0mm 0 W/m2
23:00 52.6 °F /  11.4 °C 46.3 °F /  7.9 °C 30.12in /  1019.9hPa Calm   2mph /  3.2km/h 79% 0.00in /  0mm 0 W/m2
23:10 52.5 °F /  11.4 °C 46.2 °F /  7.9 °C 30.12in /  1019.9hPa NW 1mph /  1.6km/h 2mph /  3.2km/h 79% 0.00in /  0mm 0 W/m2
23:20 52.3 °F /  11.3 °C 46.4 °F /  8 °C 30.12in /  1019.9hPa Calm   2mph /  3.2km/h 80% 0.00in /  0mm 0 W/m2
23:30 52.3 °F /  11.3 °C 46.4 °F /  8 °C 30.13in /  1020.2hPa NW 1mph /  1.6km/h 2mph /  3.2km/h 80% 0.00in /  0mm 0 W/m2
23:40 52.2 °F /  11.2 °C 46.5 °F /  8.1 °C 30.13in /  1020.2hPa NW 1mph /  1.6km/h 2mph /  3.2km/h 81% 0.00in /  0mm 0 W/m2
23:50 52.2 °F /  11.2 °C 46.5 °F /  8.1 °C 30.13in /  1020.2hPa Calm   2mph /  3.2km/h 81% 0.00in /  0mm 0 W/m2
Knjazevac, Serbia
Compliments of Weather Underground - 2 mb